createdAt,value
2023-05-19T00:00:54.621Z,25.29
2023-05-19T00:01:54.701Z,25.26
2023-05-19T00:02:54.663Z,25.26
2023-05-19T00:03:54.676Z,25.26
2023-05-19T00:04:54.580Z,25.26
2023-05-19T00:05:54.653Z,25.25
2023-05-19T00:06:54.583Z,25.26
2023-05-19T00:07:54.574Z,25.28
2023-05-19T00:08:54.607Z,25.26
2023-05-19T00:09:54.599Z,25.26
2023-05-19T00:10:54.583Z,25.28
2023-05-19T00:11:54.591Z,25.26
2023-05-19T00:12:54.575Z,25.26
2023-05-19T00:13:54.583Z,25.25
2023-05-19T00:14:54.597Z,25.26
2023-05-19T00:15:54.593Z,25.22
2023-05-19T00:16:54.576Z,25.28
2023-05-19T00:17:54.618Z,25.25
2023-05-19T00:18:54.607Z,25.25
2023-05-19T00:19:54.578Z,25.25
2023-05-19T00:20:54.553Z,25.23
2023-05-19T00:21:54.579Z,25.22
2023-05-19T00:22:54.547Z,25.23
2023-05-19T00:23:54.587Z,25.25
2023-05-19T00:24:54.557Z,25.23
2023-05-19T00:25:54.549Z,25.23
2023-05-19T00:26:54.589Z,25.23
2023-05-19T00:27:54.564Z,25.23
2023-05-19T00:28:54.558Z,25.23
2023-05-19T00:29:54.547Z,25.22
2023-05-19T00:30:54.556Z,25.25
2023-05-19T00:31:54.580Z,25.22
2023-05-19T00:32:54.607Z,25.26
2023-05-19T00:33:54.555Z,25.23
2023-05-19T00:34:54.589Z,25.25
2023-05-19T00:35:54.548Z,25.23
2023-05-19T00:36:54.540Z,25.25
2023-05-19T00:37:54.553Z,25.22
2023-05-19T00:38:54.544Z,25.23
2023-05-19T00:39:54.550Z,25.23
2023-05-19T00:40:54.576Z,25.25
2023-05-19T00:41:54.558Z,25.23
2023-05-19T00:42:54.531Z,25.25
2023-05-19T00:43:54.555Z,25.22
2023-05-19T00:44:54.543Z,25.25
2023-05-19T00:45:54.555Z,25.25
2023-05-19T00:46:54.635Z,25.23
2023-05-19T00:47:54.587Z,25.22
2023-05-19T00:48:54.541Z,25.23
2023-05-19T00:49:54.559Z,25.23
2023-05-19T00:50:54.546Z,25.25
2023-05-19T00:51:54.541Z,25.22
2023-05-19T00:52:54.548Z,25.22
2023-05-19T00:53:54.539Z,25.23
2023-05-19T00:54:54.563Z,25.22
2023-05-19T00:55:54.526Z,25.22
2023-05-19T00:56:54.544Z,25.22
2023-05-19T00:57:54.521Z,25.21
2023-05-19T00:58:54.547Z,25.21
2023-05-19T00:59:54.547Z,25.23
2023-05-19T01:00:54.556Z,25.23
2023-05-19T01:01:54.537Z,25.22
2023-05-19T01:02:54.664Z,25.22
2023-05-19T01:03:54.628Z,25.25
2023-05-19T01:04:54.525Z,25.23
2023-05-19T01:05:54.536Z,25.22
2023-05-19T01:06:54.520Z,25.23
2023-05-19T01:07:54.537Z,25.21
2023-05-19T01:08:54.513Z,25.23
2023-05-19T01:09:54.555Z,25.23
2023-05-19T01:10:54.524Z,25.21
2023-05-19T01:11:54.545Z,25.21
2023-05-19T01:12:54.543Z,25.22
2023-05-19T01:13:54.538Z,25.21
2023-05-19T01:14:54.527Z,25.22
2023-05-19T01:15:54.553Z,25.25
2023-05-19T01:16:54.580Z,25.22
2023-05-19T01:17:54.635Z,25.22
2023-05-19T01:18:54.645Z,25.22
2023-05-19T01:19:54.526Z,25.22
2023-05-19T01:20:54.541Z,25.23
2023-05-19T01:21:54.534Z,25.22
2023-05-19T01:22:54.500Z,25.19
2023-05-19T01:23:54.505Z,25.21
2023-05-19T01:24:54.529Z,25.21
2023-05-19T01:25:54.544Z,25.19
2023-05-19T01:26:54.531Z,25.21
2023-05-19T01:27:54.500Z,25.22
2023-05-19T01:28:54.549Z,25.25
2023-05-19T01:29:54.522Z,25.23
2023-05-19T01:30:54.521Z,25.22
2023-05-19T01:31:54.576Z,25.23
2023-05-19T01:32:54.508Z,25.25
2023-05-19T01:33:54.536Z,25.26
2023-05-19T01:34:54.568Z,25.26
2023-05-19T01:35:54.599Z,25.30
2023-05-19T01:36:54.643Z,25.34
2023-05-19T01:37:54.714Z,25.33
2023-05-19T01:38:54.767Z,25.36
2023-05-19T01:39:54.780Z,25.37
2023-05-19T01:40:54.863Z,25.40
2023-05-19T01:41:54.925Z,25.43
2023-05-19T01:42:57.289Z,25.46
2023-05-19T01:43:55.218Z,25.49
2023-05-19T01:44:56.056Z,25.52
2023-05-19T01:45:55.348Z,25.53
2023-05-19T01:46:55.381Z,25.56
2023-05-19T01:47:55.451Z,25.56
2023-05-19T01:48:55.458Z,25.59
2023-05-19T01:49:55.551Z,25.64
2023-05-19T01:50:55.592Z,25.64
2023-05-19T01:51:55.654Z,25.66
2023-05-19T01:52:55.682Z,25.67
2023-05-19T01:53:55.791Z,25.70
2023-05-19T01:54:55.812Z,25.73
2023-05-19T01:55:55.886Z,25.73
2023-05-19T01:56:55.927Z,25.77
2023-05-19T01:57:56.013Z,25.74
2023-05-19T01:58:56.028Z,25.77
2023-05-19T01:59:56.075Z,25.81
2023-05-19T02:00:56.183Z,25.84
2023-05-19T02:01:56.181Z,25.84
2023-05-19T02:02:56.311Z,25.85
2023-05-19T02:03:56.299Z,25.88
2023-05-19T02:04:56.350Z,25.91
2023-05-19T02:05:56.399Z,25.88
2023-05-19T02:06:56.438Z,25.93
2023-05-19T02:07:56.495Z,25.95
2023-05-19T02:08:56.526Z,25.94
2023-05-19T02:09:56.560Z,25.94
2023-05-19T02:10:56.602Z,25.97
2023-05-19T02:11:56.681Z,26.00
2023-05-19T02:12:56.726Z,26.00
2023-05-19T02:13:56.741Z,26.01
2023-05-19T02:14:56.784Z,26.01
2023-05-19T02:15:56.878Z,26.03
2023-05-19T02:16:56.865Z,26.03
2023-05-19T02:17:56.911Z,26.03
2023-05-19T02:18:56.969Z,26.03
2023-05-19T02:19:56.983Z,26.05
2023-05-19T02:20:56.992Z,26.07
2023-05-19T02:21:57.057Z,26.08
2023-05-19T02:22:57.068Z,26.08
2023-05-19T02:23:57.108Z,26.08
2023-05-19T02:24:57.145Z,26.09
2023-05-19T02:25:57.211Z,26.09
2023-05-19T02:26:57.250Z,26.15
2023-05-19T02:27:57.275Z,26.11
2023-05-19T02:28:57.292Z,26.14
2023-05-19T02:29:57.325Z,26.11
2023-05-19T02:30:57.370Z,26.14
2023-05-19T02:31:57.449Z,26.15
2023-05-19T02:32:57.492Z,26.15
2023-05-19T02:33:57.470Z,26.17
2023-05-19T02:34:57.489Z,26.15
2023-05-19T02:35:57.537Z,26.17
2023-05-19T02:36:57.536Z,26.18
2023-05-19T02:37:57.565Z,26.21
2023-05-19T02:38:57.606Z,26.20
2023-05-19T02:39:57.649Z,26.18
2023-05-19T02:40:57.690Z,26.20
2023-05-19T02:41:57.711Z,26.24
2023-05-19T02:42:57.724Z,26.22
2023-05-19T02:43:57.764Z,26.24
2023-05-19T02:44:57.770Z,26.25
2023-05-19T02:45:57.860Z,26.25
2023-05-19T02:46:57.849Z,26.24
2023-05-19T02:47:57.935Z,26.25
2023-05-19T02:48:57.914Z,26.27
2023-05-19T02:49:57.929Z,26.27
2023-05-19T02:50:57.987Z,26.28
2023-05-19T02:51:58.015Z,26.27
2023-05-19T02:52:58.018Z,26.30
2023-05-19T02:53:58.065Z,26.30
2023-05-19T02:54:58.082Z,26.31
2023-05-19T02:55:58.114Z,26.31
2023-05-19T02:56:58.134Z,26.31
2023-05-19T02:57:58.152Z,26.31
2023-05-19T02:58:58.208Z,26.32
2023-05-19T02:59:58.233Z,26.31
2023-05-19T03:00:58.220Z,26.31
2023-05-19T03:01:58.316Z,26.34
2023-05-19T03:02:58.366Z,26.34
2023-05-19T03:03:58.386Z,26.32
2023-05-19T03:04:58.336Z,26.34
2023-05-19T03:05:58.327Z,26.34
2023-05-19T03:06:58.351Z,26.35
2023-05-19T03:07:58.377Z,26.35
2023-05-19T03:08:58.415Z,26.34
2023-05-19T03:09:58.421Z,26.35
2023-05-19T03:10:58.423Z,26.36
2023-05-19T03:11:58.445Z,26.36
2023-05-19T03:12:58.467Z,26.36
2023-05-19T03:13:58.489Z,26.34
2023-05-19T03:14:58.536Z,26.36
2023-05-19T03:15:58.607Z,26.38
2023-05-19T03:16:58.603Z,26.39
2023-05-19T03:17:58.610Z,26.36
2023-05-19T03:18:58.598Z,26.39
2023-05-19T03:19:58.598Z,26.36
2023-05-19T03:20:58.631Z,26.39
2023-05-19T03:21:58.639Z,26.36
2023-05-19T03:22:58.712Z,26.38
2023-05-19T03:23:58.709Z,26.38
2023-05-19T03:24:58.725Z,26.39
2023-05-19T03:25:58.700Z,26.38
2023-05-19T03:26:58.746Z,26.38
2023-05-19T03:27:58.760Z,26.38
2023-05-19T03:28:58.746Z,26.41
2023-05-19T03:29:58.769Z,26.41
2023-05-19T03:30:58.814Z,26.41
2023-05-19T03:31:58.939Z,26.41
2023-05-19T03:32:58.902Z,26.39
2023-05-19T03:33:58.852Z,26.41
2023-05-19T03:34:58.881Z,26.41
2023-05-19T03:35:58.889Z,26.45
2023-05-19T03:36:58.889Z,26.42
2023-05-19T03:37:58.919Z,26.44
2023-05-19T03:38:58.910Z,26.44
2023-05-19T03:39:58.942Z,26.42
2023-05-19T03:40:58.958Z,26.45
2023-05-19T03:41:58.995Z,26.45
2023-05-19T03:42:58.975Z,26.45
2023-05-19T03:43:59.065Z,26.45
2023-05-19T03:44:59.022Z,26.45
2023-05-19T03:45:59.038Z,26.46
2023-05-19T03:46:59.060Z,26.45
2023-05-19T03:47:59.089Z,26.46
2023-05-19T03:48:59.071Z,26.46
2023-05-19T03:49:59.092Z,26.46
2023-05-19T03:50:59.096Z,26.48
2023-05-19T03:51:59.084Z,26.45
2023-05-19T03:52:59.153Z,26.46
2023-05-19T03:53:59.493Z,26.46
2023-05-19T03:54:59.550Z,26.48
2023-05-19T03:55:59.163Z,26.46
2023-05-19T03:56:59.161Z,26.48
2023-05-19T03:57:59.158Z,26.49
2023-05-19T03:58:59.187Z,26.48
2023-05-19T03:59:59.184Z,26.51
2023-05-19T04:00:59.200Z,26.49
2023-05-19T04:01:59.228Z,26.51
2023-05-19T04:02:59.274Z,26.49
2023-05-19T04:03:59.220Z,26.51
2023-05-19T04:04:59.313Z,26.53
2023-05-19T04:05:59.265Z,26.52
2023-05-19T04:06:59.238Z,26.52
2023-05-19T04:07:59.257Z,26.52
2023-05-19T04:08:59.279Z,26.51
2023-05-19T04:09:59.305Z,26.52
2023-05-19T04:10:59.296Z,26.51
2023-05-19T04:11:59.308Z,26.51
2023-05-19T04:12:59.309Z,26.53
2023-05-19T04:13:59.314Z,26.53
2023-05-19T04:14:59.339Z,26.52
2023-05-19T04:15:59.378Z,26.55
2023-05-19T04:16:59.333Z,26.53
2023-05-19T04:17:59.365Z,26.53
2023-05-19T04:18:59.385Z,26.55
2023-05-19T04:19:59.362Z,26.55
2023-05-19T04:20:59.394Z,26.55
2023-05-19T04:21:59.398Z,26.52
2023-05-19T04:22:59.417Z,26.55
2023-05-19T04:23:59.417Z,26.56
2023-05-19T04:24:59.436Z,26.58
2023-05-19T04:25:59.449Z,26.56
2023-05-19T04:26:59.451Z,26.56
2023-05-19T04:27:59.466Z,26.59
2023-05-19T04:28:59.465Z,26.56
2023-05-19T04:29:59.468Z,26.56
2023-05-19T04:30:59.502Z,26.56
2023-05-19T04:31:59.469Z,26.56
2023-05-19T04:32:59.521Z,26.55
2023-05-19T04:33:59.493Z,26.55
2023-05-19T04:34:59.496Z,26.55
2023-05-19T04:35:59.507Z,26.56
2023-05-19T04:36:59.511Z,26.53
2023-05-19T04:37:59.541Z,26.53
2023-05-19T04:38:59.548Z,26.53
2023-05-19T04:39:59.560Z,26.53
2023-05-19T04:40:59.581Z,26.53
2023-05-19T04:41:59.553Z,26.52
2023-05-19T04:42:59.592Z,26.51
2023-05-19T04:43:59.608Z,26.52
2023-05-19T04:44:59.629Z,26.53
2023-05-19T04:45:59.598Z,26.51
2023-05-19T04:46:59.662Z,26.51
2023-05-19T04:47:59.706Z,26.49
2023-05-19T04:48:59.636Z,26.53
2023-05-19T04:50:00.733Z,26.49
2023-05-19T04:50:59.710Z,26.49
2023-05-19T04:51:59.685Z,26.46
2023-05-19T04:52:59.723Z,26.46
2023-05-19T04:53:59.706Z,26.51
2023-05-19T04:54:59.700Z,26.48
2023-05-19T04:55:59.733Z,26.46
2023-05-19T04:56:59.755Z,26.45
2023-05-19T04:57:59.770Z,26.46
2023-05-19T04:58:59.756Z,26.46
2023-05-19T04:59:59.769Z,26.42
2023-05-19T05:01:09.158Z,26.44
2023-05-19T05:01:59.857Z,26.45
2023-05-19T05:02:59.882Z,26.45
2023-05-19T05:03:59.828Z,26.45
2023-05-19T05:04:59.828Z,26.44
2023-05-19T05:05:59.802Z,26.42
2023-05-19T05:06:59.742Z,26.44
2023-05-19T05:07:59.792Z,26.44
2023-05-19T05:08:59.753Z,26.42
2023-05-19T05:09:59.745Z,26.42
2023-05-19T05:10:59.729Z,26.45
2023-05-19T05:11:59.754Z,26.44
2023-05-19T05:12:59.706Z,26.45
2023-05-19T05:13:59.730Z,26.44
2023-05-19T05:14:59.685Z,26.41
2023-05-19T05:15:59.704Z,26.42
2023-05-19T05:16:59.675Z,26.44
2023-05-19T05:17:59.745Z,26.42
2023-05-19T05:18:59.711Z,26.42
2023-05-19T05:19:59.658Z,26.39
2023-05-19T05:20:59.664Z,26.41
2023-05-19T05:21:59.682Z,26.38
2023-05-19T05:22:59.697Z,26.42
2023-05-19T05:23:59.644Z,26.39
2023-05-19T05:24:59.621Z,26.42
2023-05-19T05:25:59.662Z,26.39
2023-05-19T05:26:59.648Z,26.41
2023-05-19T05:27:59.614Z,26.39
2023-05-19T05:28:59.617Z,26.41
2023-05-19T05:29:59.626Z,26.38
2023-05-19T05:30:59.594Z,26.36
2023-05-19T05:31:59.666Z,26.39
2023-05-19T05:32:59.652Z,26.39
2023-05-19T05:33:59.590Z,26.38
2023-05-19T05:34:59.570Z,26.36
2023-05-19T05:35:59.535Z,26.38
2023-05-19T05:37:00.207Z,26.36
2023-05-19T05:37:59.551Z,26.38
2023-05-19T05:38:59.529Z,26.39
2023-05-19T05:39:59.530Z,26.36
2023-05-19T05:40:59.530Z,26.39
2023-05-19T05:41:59.506Z,26.35
2023-05-19T05:42:59.517Z,26.36
2023-05-19T05:43:59.512Z,26.38
2023-05-19T05:44:59.495Z,26.34
2023-05-19T05:46:08.837Z,26.34
2023-05-19T05:46:59.482Z,26.35
2023-05-19T05:47:59.551Z,26.35
2023-05-19T05:48:59.486Z,26.32
2023-05-19T05:49:59.446Z,26.32
2023-05-19T05:50:59.517Z,26.32
2023-05-19T05:52:59.552Z,26.31
2023-05-19T05:53:59.443Z,26.31
2023-05-19T05:54:59.456Z,26.30
2023-05-19T05:55:59.443Z,26.31
2023-05-19T05:56:59.429Z,26.32
2023-05-19T05:57:59.442Z,26.31
2023-05-19T05:58:59.420Z,26.28
2023-05-19T05:59:59.379Z,26.27
2023-05-19T06:00:59.395Z,26.28
2023-05-19T06:01:59.396Z,26.27
2023-05-19T06:02:59.607Z,26.27
2023-05-19T06:03:59.384Z,26.27
2023-05-19T06:04:59.426Z,26.28
2023-05-19T06:05:59.441Z,26.28
2023-05-19T06:06:59.359Z,26.24
2023-05-19T06:07:59.373Z,26.25
2023-05-19T06:08:59.355Z,26.25
2023-05-19T06:09:59.354Z,26.25
2023-05-19T06:10:59.328Z,26.24
2023-05-19T06:11:59.315Z,26.25
2023-05-19T06:12:59.311Z,26.24
2023-05-19T06:13:59.326Z,26.25
2023-05-19T06:14:59.343Z,26.22
2023-05-19T06:16:01.720Z,26.21
2023-05-19T06:16:59.292Z,26.25
2023-05-19T06:17:59.487Z,26.22
2023-05-19T06:18:59.445Z,26.24
2023-05-19T06:19:59.284Z,26.24
2023-05-19T06:20:59.246Z,26.24
2023-05-19T06:21:59.276Z,26.24
2023-05-19T06:22:59.263Z,26.25
2023-05-19T06:23:59.226Z,26.22
2023-05-19T06:24:59.276Z,26.22
2023-05-19T06:25:59.254Z,26.20
2023-05-19T06:26:59.231Z,26.21
2023-05-19T06:27:59.187Z,26.22
2023-05-19T06:28:59.233Z,26.21
2023-05-19T06:29:59.227Z,26.22
2023-05-19T06:30:59.251Z,26.21
2023-05-19T06:31:59.188Z,26.22
2023-05-19T06:32:59.191Z,26.22
2023-05-19T06:33:59.168Z,26.24
2023-05-19T06:34:59.159Z,26.22
2023-05-19T06:35:59.173Z,26.21
2023-05-19T06:36:59.154Z,26.21
2023-05-19T06:37:59.162Z,26.24
2023-05-19T06:39:01.335Z,26.22
2023-05-19T06:39:59.098Z,26.18
2023-05-19T06:40:59.094Z,26.21
2023-05-19T06:41:59.131Z,26.21
2023-05-19T06:42:59.113Z,26.21
2023-05-19T06:43:59.104Z,26.20
2023-05-19T06:44:59.110Z,26.21
2023-05-19T06:45:59.100Z,26.18
2023-05-19T06:46:59.137Z,26.18
2023-05-19T06:47:59.130Z,26.24
2023-05-19T06:48:59.046Z,26.20
2023-05-19T06:49:59.080Z,26.20
2023-05-19T06:50:59.046Z,26.22
2023-05-19T06:51:59.072Z,26.21
2023-05-19T06:52:59.039Z,26.21
2023-05-19T06:53:59.050Z,26.20
2023-05-19T06:54:59.005Z,26.22
2023-05-19T06:56:00.167Z,26.20
2023-05-19T06:56:58.978Z,26.21
2023-05-19T06:57:58.990Z,26.22
2023-05-19T06:58:58.964Z,26.21
2023-05-19T06:59:58.979Z,26.21
2023-05-19T07:00:58.986Z,26.18
2023-05-19T07:01:59.079Z,26.21
2023-05-19T07:02:59.073Z,26.24
2023-05-19T07:03:59.099Z,26.22
2023-05-19T07:04:58.952Z,26.24
2023-05-19T07:05:58.938Z,26.20
2023-05-19T07:06:58.942Z,26.24
2023-05-19T07:07:58.927Z,26.21
2023-05-19T07:08:58.945Z,26.21
2023-05-19T07:09:58.900Z,26.21
2023-05-19T07:10:58.897Z,26.21
2023-05-19T07:11:58.872Z,26.24
2023-05-19T07:12:58.905Z,26.21
2023-05-19T07:13:58.951Z,26.24
2023-05-19T07:14:58.872Z,26.22
2023-05-19T07:15:58.869Z,26.21
2023-05-19T07:16:58.853Z,26.21
2023-05-19T07:17:58.895Z,26.20
2023-05-19T07:18:58.994Z,26.24
2023-05-19T07:19:58.994Z,26.22
2023-05-19T07:20:59.085Z,26.21
2023-05-19T07:21:59.079Z,26.22
2023-05-19T07:22:59.114Z,26.22
2023-05-19T07:23:59.165Z,26.20
2023-05-19T07:24:59.162Z,26.22
2023-05-19T07:25:59.237Z,26.21
2023-05-19T07:26:59.292Z,26.20
2023-05-19T07:27:59.293Z,26.25
2023-05-19T07:28:59.346Z,26.22
2023-05-19T07:29:59.406Z,26.22
2023-05-19T07:30:59.419Z,26.21
2023-05-19T07:31:59.571Z,26.21
2023-05-19T07:32:59.499Z,26.20
2023-05-19T07:33:59.535Z,26.18
2023-05-19T07:34:59.580Z,26.18
2023-05-19T07:35:59.607Z,26.21
2023-05-19T07:36:59.689Z,26.21
2023-05-19T07:37:59.723Z,26.22
2023-05-19T07:38:59.752Z,26.20
2023-05-19T07:39:59.831Z,26.21
2023-05-19T07:40:59.868Z,26.21
2023-05-19T07:41:59.903Z,26.20
2023-05-19T07:42:59.906Z,26.18
2023-05-19T07:43:59.937Z,26.22
2023-05-19T07:45:00.008Z,26.21
2023-05-19T07:46:00.051Z,26.22
2023-05-19T07:47:00.068Z,26.21
2023-05-19T07:48:00.230Z,26.20
2023-05-19T07:49:00.153Z,26.18
2023-05-19T07:50:00.248Z,26.21
2023-05-19T07:51:00.216Z,26.18
2023-05-19T07:52:00.268Z,26.21
2023-05-19T07:53:00.332Z,26.17
2023-05-19T07:54:00.351Z,26.20
2023-05-19T07:55:01.275Z,26.18
2023-05-19T07:56:00.448Z,26.18
2023-05-19T07:57:00.515Z,26.18
2023-05-19T07:58:00.492Z,26.20
2023-05-19T07:59:00.515Z,26.20
2023-05-19T08:00:00.597Z,26.20
2023-05-19T08:01:00.641Z,26.20
2023-05-19T08:02:00.711Z,26.18
2023-05-19T08:03:00.778Z,26.17
2023-05-19T08:04:00.852Z,26.17
2023-05-19T08:05:00.809Z,26.15
2023-05-19T08:06:00.856Z,26.17
2023-05-19T08:07:00.915Z,26.20
2023-05-19T08:08:00.934Z,26.18
2023-05-19T08:09:00.958Z,26.17
2023-05-19T08:10:01.017Z,26.20
2023-05-19T08:11:01.050Z,26.18
2023-05-19T08:12:01.126Z,26.20
2023-05-19T08:13:01.201Z,26.20
2023-05-19T08:14:01.171Z,26.20
2023-05-19T08:15:01.750Z,26.21
2023-05-19T08:16:01.325Z,26.20
2023-05-19T08:17:01.327Z,26.21
2023-05-19T08:18:01.421Z,26.18
2023-05-19T08:19:01.469Z,26.18
2023-05-19T08:20:01.478Z,26.20
2023-05-19T08:21:01.508Z,26.17
2023-05-19T08:22:01.512Z,26.15
2023-05-19T08:23:01.545Z,26.18
2023-05-19T08:24:01.672Z,26.17
2023-05-19T08:25:01.650Z,26.18
2023-05-19T08:26:01.699Z,26.18
2023-05-19T08:27:01.744Z,26.17
2023-05-19T08:28:01.795Z,26.18
2023-05-19T08:29:01.816Z,26.20
2023-05-19T08:30:01.870Z,26.18
2023-05-19T08:31:02.006Z,26.21
2023-05-19T08:32:01.992Z,26.21
2023-05-19T08:33:02.033Z,26.24
2023-05-19T08:34:02.053Z,26.22
2023-05-19T08:35:02.065Z,26.22
2023-05-19T08:36:02.113Z,26.25
2023-05-19T08:37:02.158Z,26.25
2023-05-19T08:38:02.200Z,26.25
2023-05-19T08:39:02.243Z,26.28
2023-05-19T08:40:02.289Z,26.27
2023-05-19T08:41:02.338Z,26.25
2023-05-19T08:42:02.359Z,26.28
2023-05-19T08:43:02.399Z,26.28
2023-05-19T08:44:02.429Z,26.27
2023-05-19T08:45:02.516Z,26.24
2023-05-19T08:46:02.489Z,26.28
2023-05-19T08:47:02.581Z,26.27
2023-05-19T08:48:02.646Z,26.30
2023-05-19T08:49:02.615Z,26.28
2023-05-19T08:50:02.870Z,26.28
2023-05-19T08:51:02.732Z,26.31
2023-05-19T08:52:02.730Z,26.31
2023-05-19T08:53:02.800Z,26.28
2023-05-19T08:54:02.802Z,26.30
2023-05-19T08:55:02.867Z,26.30
2023-05-19T08:56:02.897Z,26.31
2023-05-19T08:57:02.925Z,26.31
2023-05-19T08:58:02.979Z,26.30
2023-05-19T08:59:02.982Z,26.28
2023-05-19T09:00:03.029Z,26.30
2023-05-19T09:01:03.109Z,26.30
2023-05-19T09:02:03.110Z,26.30
2023-05-19T09:04:03.187Z,26.28
2023-05-19T09:05:03.266Z,26.30
2023-05-19T09:06:03.165Z,26.31
2023-05-19T09:07:03.088Z,26.31
2023-05-19T09:08:03.135Z,26.31
2023-05-19T09:09:03.118Z,26.30
2023-05-19T09:10:03.091Z,26.30
2023-05-19T09:11:03.119Z,26.31
2023-05-19T09:12:03.091Z,26.32
2023-05-19T09:13:03.098Z,26.31
2023-05-19T09:14:03.052Z,26.32
2023-05-19T09:15:03.065Z,26.31
2023-05-19T09:16:03.074Z,26.32
2023-05-19T09:17:03.131Z,26.32
2023-05-19T09:18:03.051Z,26.32
2023-05-19T09:19:03.062Z,26.32
2023-05-19T09:20:03.044Z,26.35
2023-05-19T09:21:03.295Z,26.38
2023-05-19T09:22:03.031Z,26.36
2023-05-19T09:23:03.007Z,26.39
2023-05-19T09:24:02.983Z,26.41
2023-05-19T09:25:03.010Z,26.38
2023-05-19T09:26:03.005Z,26.36
2023-05-19T09:27:02.947Z,26.38
2023-05-19T09:28:02.982Z,26.36
2023-05-19T09:29:02.944Z,26.39
2023-05-19T09:30:03.008Z,26.38
2023-05-19T09:31:02.953Z,26.39
2023-05-19T09:32:02.997Z,26.38
2023-05-19T09:33:02.995Z,26.38
2023-05-19T09:34:02.924Z,26.39
2023-05-19T09:35:02.924Z,26.39
2023-05-19T09:36:02.913Z,26.39
2023-05-19T09:37:02.909Z,26.41
2023-05-19T09:38:02.962Z,26.41
2023-05-19T09:39:02.907Z,26.41
2023-05-19T09:40:02.909Z,26.44
2023-05-19T09:41:02.887Z,26.41
2023-05-19T09:42:02.878Z,26.41
2023-05-19T09:43:02.882Z,26.39
2023-05-19T09:44:03.863Z,26.41
2023-05-19T09:45:02.862Z,26.41
2023-05-19T09:46:02.847Z,26.42
2023-05-19T09:47:02.839Z,26.44
2023-05-19T09:48:02.873Z,26.44
2023-05-19T09:49:02.816Z,26.45
2023-05-19T09:50:02.827Z,26.45
2023-05-19T09:51:02.834Z,26.46
2023-05-19T09:52:02.857Z,26.45
2023-05-19T09:53:02.780Z,26.46
2023-05-19T09:54:02.770Z,26.46
2023-05-19T09:55:02.749Z,26.46
2023-05-19T09:56:02.749Z,26.49
2023-05-19T09:57:02.760Z,26.49
2023-05-19T09:58:02.742Z,26.51
2023-05-19T09:59:02.725Z,26.53
2023-05-19T10:00:02.739Z,26.53
2023-05-19T10:01:02.795Z,26.55
2023-05-19T10:02:03.144Z,26.52
2023-05-19T10:03:02.783Z,26.56
2023-05-19T10:04:03.865Z,26.53
2023-05-19T10:05:02.761Z,26.55
2023-05-19T10:06:02.698Z,26.58
2023-05-19T10:07:02.684Z,26.55
2023-05-19T10:08:02.673Z,26.55
2023-05-19T10:09:02.687Z,26.58
2023-05-19T10:10:02.665Z,26.56
2023-05-19T10:11:02.669Z,26.55
2023-05-19T10:12:02.672Z,26.58
2023-05-19T10:13:02.626Z,26.59
2023-05-19T10:14:02.629Z,26.56
2023-05-19T10:15:02.638Z,26.59
2023-05-19T10:16:02.832Z,26.56
2023-05-19T10:17:02.759Z,26.58
2023-05-19T10:18:02.678Z,26.58
2023-05-19T10:19:02.747Z,26.58
2023-05-19T10:20:02.580Z,26.58
2023-05-19T10:21:02.646Z,26.60
2023-05-19T10:22:02.556Z,26.58
2023-05-19T10:23:02.555Z,26.59
2023-05-19T10:24:02.595Z,26.58
2023-05-19T10:25:02.570Z,26.60
2023-05-19T10:26:02.551Z,26.59
2023-05-19T10:27:02.595Z,26.59
2023-05-19T10:28:02.567Z,26.62
2023-05-19T10:29:02.584Z,26.60
2023-05-19T10:30:02.565Z,26.62
2023-05-19T10:31:02.534Z,26.62
2023-05-19T10:32:02.544Z,26.62
2023-05-19T10:33:02.533Z,26.63
2023-05-19T10:34:02.520Z,26.62
2023-05-19T10:35:02.487Z,26.62
2023-05-19T10:36:02.484Z,26.63
2023-05-19T10:37:02.495Z,26.63
2023-05-19T10:38:02.512Z,26.65
2023-05-19T10:39:02.466Z,26.68
2023-05-19T10:40:02.459Z,26.68
2023-05-19T10:41:02.416Z,26.69
2023-05-19T10:42:02.467Z,26.71
2023-05-19T10:43:02.424Z,26.71
2023-05-19T10:44:02.406Z,26.72
2023-05-19T10:45:02.426Z,26.71
2023-05-19T10:46:02.373Z,26.71
2023-05-19T10:47:02.585Z,26.72
2023-05-19T10:48:02.419Z,26.72
2023-05-19T10:49:02.358Z,26.69
2023-05-19T10:50:02.383Z,26.69
2023-05-19T10:51:02.369Z,26.71
2023-05-19T10:52:02.367Z,26.71
2023-05-19T10:53:02.366Z,26.72
2023-05-19T10:54:02.393Z,26.72
2023-05-19T10:55:02.350Z,26.71
2023-05-19T10:56:02.355Z,26.69
2023-05-19T10:57:02.329Z,26.72
2023-05-19T10:58:02.393Z,26.72
2023-05-19T10:59:02.332Z,26.71
2023-05-19T11:00:02.312Z,26.71
2023-05-19T11:01:02.359Z,26.71
2023-05-19T11:02:02.297Z,26.69
2023-05-19T11:03:02.356Z,26.72
2023-05-19T11:04:02.352Z,26.72
2023-05-19T11:05:02.330Z,26.69
2023-05-19T11:06:02.266Z,26.72
2023-05-19T11:07:02.284Z,26.72
2023-05-19T11:08:02.487Z,26.72
2023-05-19T11:09:02.367Z,26.73
2023-05-19T11:10:02.261Z,26.75
2023-05-19T11:11:02.883Z,26.75
2023-05-19T11:12:02.267Z,26.76
2023-05-19T11:13:02.225Z,26.76
2023-05-19T11:14:02.231Z,26.76
2023-05-19T11:15:02.242Z,26.75
2023-05-19T11:16:02.229Z,26.78
2023-05-19T11:17:02.535Z,26.76
2023-05-19T11:18:02.295Z,26.75
2023-05-19T11:19:02.222Z,26.81
2023-05-19T11:20:02.209Z,26.79
2023-05-19T11:21:02.330Z,26.82
2023-05-19T11:22:02.202Z,26.82
2023-05-19T11:23:02.225Z,26.81
2023-05-19T11:24:02.298Z,26.81
2023-05-19T11:25:02.177Z,26.81
2023-05-19T11:26:02.141Z,26.82
2023-05-19T11:27:02.176Z,26.82
2023-05-19T11:28:02.127Z,26.82
2023-05-19T11:29:02.112Z,26.83
2023-05-19T11:30:02.419Z,26.81
2023-05-19T11:31:02.116Z,26.83
2023-05-19T11:32:02.157Z,26.83
2023-05-19T11:33:02.188Z,26.83
2023-05-19T11:34:02.133Z,26.82
2023-05-19T11:35:02.129Z,26.82
2023-05-19T11:36:02.113Z,26.83
2023-05-19T11:37:02.122Z,26.83
2023-05-19T11:38:02.091Z,26.83
2023-05-19T11:39:02.068Z,26.81
2023-05-19T11:40:02.075Z,26.82
2023-05-19T11:41:02.037Z,26.83
2023-05-19T11:42:02.022Z,26.83
2023-05-19T11:43:02.143Z,26.86
2023-05-19T11:44:02.063Z,26.85
2023-05-19T11:45:02.062Z,26.83
2023-05-19T11:46:02.206Z,26.86
2023-05-19T11:47:02.006Z,26.86
2023-05-19T11:48:03.299Z,26.85
2023-05-19T11:49:01.989Z,26.85
2023-05-19T11:50:02.032Z,26.85
2023-05-19T11:51:01.997Z,26.85
2023-05-19T11:52:01.970Z,26.86
2023-05-19T11:53:02.097Z,26.83
2023-05-19T11:54:01.995Z,26.85
2023-05-19T11:55:01.961Z,26.85
2023-05-19T11:56:01.928Z,26.85
2023-05-19T11:57:01.942Z,26.83
2023-05-19T11:58:04.460Z,26.85
2023-05-19T11:59:01.964Z,26.82
2023-05-19T12:00:01.969Z,26.83
2023-05-19T12:01:01.933Z,26.83
2023-05-19T12:02:01.924Z,26.82
2023-05-19T12:03:02.021Z,26.83
2023-05-19T12:04:01.939Z,26.82
2023-05-19T12:05:01.960Z,26.83
2023-05-19T12:06:01.935Z,26.83
2023-05-19T12:07:01.900Z,26.85
2023-05-19T12:08:01.861Z,26.83
2023-05-19T12:09:01.874Z,26.81
2023-05-19T12:10:01.850Z,26.82
2023-05-19T12:11:01.866Z,26.81
2023-05-19T12:12:01.881Z,26.82
2023-05-19T12:13:01.842Z,26.81
2023-05-19T12:14:01.851Z,26.78
2023-05-19T12:15:01.825Z,26.76
2023-05-19T12:16:01.886Z,26.79
2023-05-19T12:17:01.809Z,26.78
2023-05-19T12:18:01.883Z,26.78
2023-05-19T12:19:01.852Z,26.73
2023-05-19T12:20:01.808Z,26.76
2023-05-19T12:21:01.786Z,26.75
2023-05-19T12:22:03.401Z,26.73
2023-05-19T12:23:01.768Z,26.75
2023-05-19T12:24:01.799Z,26.72
2023-05-19T12:25:01.763Z,26.73
2023-05-19T12:26:01.763Z,26.73
2023-05-19T12:27:01.778Z,26.72
2023-05-19T12:28:01.748Z,26.72
2023-05-19T12:29:01.756Z,26.73
2023-05-19T12:30:01.750Z,26.72
2023-05-19T12:31:01.735Z,26.72
2023-05-19T12:32:01.834Z,26.71
2023-05-19T12:33:01.801Z,26.69
2023-05-19T12:34:01.703Z,26.73
2023-05-19T12:35:01.677Z,26.71
2023-05-19T12:36:01.723Z,26.72
2023-05-19T12:37:01.696Z,26.71
2023-05-19T12:38:01.701Z,26.75
2023-05-19T12:39:01.678Z,26.73
2023-05-19T12:40:01.645Z,26.73
2023-05-19T12:41:01.671Z,26.73
2023-05-19T12:42:01.668Z,26.75
2023-05-19T12:43:01.641Z,26.72
2023-05-19T12:44:01.634Z,26.76
2023-05-19T12:45:03.169Z,26.72
2023-05-19T12:46:01.860Z,26.73
2023-05-19T12:47:02.004Z,26.72
2023-05-19T12:48:01.987Z,26.72
2023-05-19T12:49:01.774Z,26.69
2023-05-19T12:50:01.852Z,26.72
2023-05-19T12:51:01.834Z,26.72
2023-05-19T12:52:02.889Z,26.71
2023-05-19T12:53:02.067Z,26.72
2023-05-19T12:54:02.065Z,26.72
2023-05-19T12:55:02.104Z,26.71